Time;durP1;ratioP1;P1;durP2;ratioP2;P2;SDS_P1;SDS_P2;PMS_P1;PMS_P2;Temp;Humidity;BMP_temperature;BMP_pressure;BME280_temperature;BME280_humidity;BME280_pressure;Samples;Min_cycle;Max_cycle;Signal;HPM_P1;HPM_P2
2021/11/27 00:02:09;;;;;;;15.80;6.45;;;;;;;;;;5012029;28;20323;-67
2021/11/27 00:04:35;;;;;;;14.00;6.68;;;;;;;;;;5005894;28;20037;-67
2021/11/27 00:07:00;;;;;;;14.68;6.43;;;;;;;;;;4993425;28;20570;-67
2021/11/27 00:09:26;;;;;;;13.60;6.70;;;;;;;;;;4973537;28;20052;-67
2021/11/27 00:11:51;;;;;;;12.75;6.35;;;;;;;;;;4992097;28;20439;-67
2021/11/27 00:14:16;;;;;;;16.35;7.50;;;;;;;;;;4992245;28;20450;-67
2021/11/27 00:16:42;;;;;;;11.32;5.70;;;;;;;;;;4992947;28;20017;-68
2021/11/27 00:19:13;;;;;;;16.83;7.00;;;;;;;;;;4991546;28;20376;-68
2021/11/27 00:21:40;;;;;;;12.18;5.72;;;;;;;;;;4974717;28;20452;-68
2021/11/27 00:24:06;;;;;;;12.40;6.43;;;;;;;;;;4973190;28;20447;-67
2021/11/27 00:26:32;;;;;;;14.25;6.65;;;;;;;;;;4991043;28;20108;-67
2021/11/27 00:28:57;;;;;;;9.43;5.43;;;;;;;;;;4991556;28;20075;-68
2021/11/27 00:31:24;;;;;;;14.98;6.07;;;;;;;;;;4973767;28;20355;-68
2021/11/27 00:33:50;;;;;;;12.63;5.88;;;;;;;;;;4991746;28;20414;-67
2021/11/27 00:36:17;;;;;;;14.05;5.95;;;;;;;;;;4991292;28;20443;-68
2021/11/27 00:38:42;;;;;;;10.70;5.15;;;;;;;;;;4991523;28;20439;-67
2021/11/27 00:41:09;;;;;;;13.05;5.90;;;;;;;;;;4973709;28;20521;-68
2021/11/27 00:43:35;;;;;;;11.88;5.53;;;;;;;;;;4990983;28;20328;-67
2021/11/27 00:46:01;;;;;;;13.00;5.68;;;;;;;;;;4990136;28;20339;-67
2021/11/27 00:48:27;;;;;;;12.70;5.60;;;;;;;;;;4972100;28;20475;-67
2021/11/27 00:50:59;;;;;;;13.23;5.80;;;;;;;;;;5008897;28;20473;-68
2021/11/27 00:53:24;;;;;;;10.27;5.85;;;;;;;;;;5010268;28;20471;-67
2021/11/27 00:55:50;;;;;;;9.20;5.30;;;;;;;;;;5010623;28;20433;-67
2021/11/27 00:58:16;;;;;;;7.82;5.28;;;;;;;;;;5010191;28;20020;-67
2021/11/27 01:00:48;;;;;;;11.65;5.80;;;;;;;;;;4992958;28;20390;-67
2021/11/27 01:03:16;;;;;;;8.82;5.15;;;;;;;;;;5011014;28;20415;-67
2021/11/27 01:05:42;;;;;;;10.45;4.75;;;;;;;;;;4992712;28;20498;-67
2021/11/27 01:08:07;;;;;;;10.55;5.18;;;;;;;;;;5010457;28;20443;-67
2021/11/27 01:10:39;;;;;;;11.73;5.50;;;;;;;;;;5009049;28;20478;-68
2021/11/27 01:13:04;;;;;;;10.27;5.18;;;;;;;;;;5011924;28;20049;-67
2021/11/27 01:15:30;;;;;;;11.60;5.47;;;;;;;;;;5010506;28;20028;-68
2021/11/27 01:17:57;;;;;;;12.05;5.53;;;;;;;;;;5009934;28;20510;-67
2021/11/27 01:20:27;;;;;;;9.52;5.20;;;;;;;;;;5010042;28;20340;-68
2021/11/27 01:22:53;;;;;;;9.15;4.97;;;;;;;;;;5009614;28;20462;-67
2021/11/27 01:25:19;;;;;;;10.27;4.88;;;;;;;;;;5009684;28;20392;-68
2021/11/27 01:27:45;;;;;;;8.13;3.85;;;;;;;;;;5010529;28;20450;-67
2021/11/27 01:30:12;;;;;;;11.52;4.85;;;;;;;;;;5009798;28;20473;-67
2021/11/27 01:32:38;;;;;;;11.50;5.68;;;;;;;;;;5010229;28;20447;-67
2021/11/27 01:35:04;;;;;;;11.30;5.45;;;;;;;;;;4975251;28;20442;-67
2021/11/27 01:37:30;;;;;;;12.43;5.13;;;;;;;;;;5009636;28;20020;-67
2021/11/27 01:39:56;;;;;;;10.75;4.78;;;;;;;;;;5009358;28;20028;-67
2021/11/27 01:42:21;;;;;;;9.32;4.85;;;;;;;;;;5009819;28;20029;-68
2021/11/27 01:44:47;;;;;;;7.38;4.63;;;;;;;;;;5009468;28;20515;-68
2021/11/27 01:47:12;;;;;;;11.05;4.45;;;;;;;;;;5009356;28;20374;-67
2021/11/27 01:49:37;;;;;;;8.65;4.97;;;;;;;;;;5009148;28;20331;-67
2021/11/27 01:52:04;;;;;;;8.27;4.63;;;;;;;;;;5009432;28;20174;-67
2021/11/27 01:54:30;;;;;;;10.15;4.40;;;;;;;;;;5009265;28;20462;-67
2021/11/27 01:56:58;;;;;;;8.45;4.28;;;;;;;;;;5009280;28;20375;-67
2021/11/27 01:59:25;;;;;;;9.05;4.35;;;;;;;;;;5009119;28;20029;-67
2021/11/27 02:01:51;;;;;;;7.65;3.88;;;;;;;;;;4991426;28;20454;-67
2021/11/27 02:04:16;;;;;;;8.50;5.05;;;;;;;;;;5009428;28;20416;-67
2021/11/27 02:06:43;;;;;;;8.40;4.43;;;;;;;;;;4991651;28;20358;-68
2021/11/27 02:09:16;;;;;;;9.82;4.65;;;;;;;;;;5010558;28;20752;-67
2021/11/27 02:11:42;;;;;;;9.80;4.82;;;;;;;;;;4991458;28;20371;-67
2021/11/27 02:14:09;;;;;;;6.15;4.00;;;;;;;;;;4991252;28;20021;-67
2021/11/27 02:16:36;;;;;;;10.48;4.20;;;;;;;;;;5008858;28;20323;-67
2021/11/27 02:19:01;;;;;;;8.68;4.28;;;;;;;;;;5010061;28;20034;-67
2021/11/27 02:21:27;;;;;;;8.45;4.00;;;;;;;;;;4991484;28;20446;-67
2021/11/27 02:23:54;;;;;;;10.68;4.47;;;;;;;;;;5009498;28;20033;-67
2021/11/27 02:26:23;;;;;;;9.75;4.18;;;;;;;;;;5010889;28;20419;-67
2021/11/27 02:29:17;;;;;;;9.50;4.13;;;;;;;;;;5009153;28;20502;-67
2021/11/27 02:31:43;;;;;;;9.15;3.70;;;;;;;;;;5008222;28;20413;-68
2021/11/27 02:34:08;;;;;;;7.60;4.15;;;;;;;;;;4991130;28;20024;-67
2021/11/27 02:36:36;;;;;;;7.35;3.92;;;;;;;;;;5009394;28;20454;-67
2021/11/27 02:39:04;;;;;;;7.65;3.88;;;;;;;;;;5008967;28;20043;-67
2021/11/27 02:41:30;;;;;;;9.07;4.47;;;;;;;;;;5008945;28;20544;-67
2021/11/27 02:43:55;;;;;;;7.82;4.00;;;;;;;;;;5009021;28;20451;-68
2021/11/27 02:46:21;;;;;;;8.68;4.00;;;;;;;;;;5007808;28;20493;-67
2021/11/27 02:48:46;;;;;;;5.40;3.38;;;;;;;;;;5009428;28;20355;-68
2021/11/27 02:51:11;;;;;;;8.95;3.58;;;;;;;;;;5008879;28;20064;-67
2021/11/27 02:53:37;;;;;;;5.53;3.65;;;;;;;;;;5008686;28;20380;-67
2021/11/27 02:56:03;;;;;;;7.97;4.20;;;;;;;;;;5008639;28;20457;-68
2021/11/27 02:58:29;;;;;;;11.52;4.53;;;;;;;;;;5009920;28;20335;-67
2021/11/27 03:00:57;;;;;;;12.23;4.53;;;;;;;;;;5008547;28;20098;-67
2021/11/27 03:03:24;;;;;;;8.53;3.87;;;;;;;;;;5009040;28;20432;-67
2021/11/27 03:05:49;;;;;;;10.07;4.88;;;;;;;;;;5009232;28;20736;-67
2021/11/27 03:08:16;;;;;;;5.82;3.97;;;;;;;;;;5008334;28;20367;-68
2021/11/27 03:10:42;;;;;;;6.22;3.97;;;;;;;;;;5008554;28;20346;-67
2021/11/27 03:13:07;;;;;;;9.07;4.68;;;;;;;;;;5008715;28;20358;-68
2021/11/27 03:15:37;;;;;;;6.35;3.78;;;;;;;;;;5008601;28;20438;-67
2021/11/27 03:18:02;;;;;;;9.05;4.03;;;;;;;;;;4991725;28;20161;-67
2021/11/27 03:20:28;;;;;;;7.85;4.32;;;;;;;;;;5008398;28;20028;-68
2021/11/27 03:22:53;;;;;;;8.45;5.00;;;;;;;;;;5008229;28;20340;-67
2021/11/27 03:25:19;;;;;;;6.53;3.67;;;;;;;;;;5008363;28;20458;-68
2021/11/27 03:27:44;;;;;;;9.38;4.43;;;;;;;;;;5008117;28;20040;-67
2021/11/27 03:30:13;;;;;;;9.35;4.95;;;;;;;;;;4991790;28;20440;-67
2021/11/27 03:32:39;;;;;;;;;;;;;;;;;;5009535;28;20453;-68
2021/11/27 03:35:05;;;;;;;10.32;5.05;;;;;;;;;;5006683;28;20325;-67
2021/11/27 03:37:30;;;;;;;10.05;5.32;;;;;;;;;;5008361;28;20463;-67
2021/11/27 03:39:56;;;;;;;8.20;4.85;;;;;;;;;;5008223;28;20138;-67
2021/11/27 03:42:21;;;;;;;10.82;5.35;;;;;;;;;;5008233;28;20528;-68
2021/11/27 03:44:48;;;;;;;8.98;5.35;;;;;;;;;;4990402;28;20036;-67
2021/11/27 03:47:14;;;;;;;12.10;5.80;;;;;;;;;;5008970;28;20359;-69
2021/11/27 03:49:39;;;;;;;9.85;5.63;;;;;;;;;;5009151;28;20352;-67
2021/11/27 03:52:06;;;;;;;11.43;6.28;;;;;;;;;;5008141;28;20346;-67
2021/11/27 03:54:32;;;;;;;12.13;6.25;;;;;;;;;;4990420;28;20443;-68
2021/11/27 03:56:59;;;;;;;13.30;6.07;;;;;;;;;;5009019;28;20638;-67
2021/11/27 03:59:26;;;;;;;11.23;6.10;;;;;;;;;;5010576;28;20554;-68
2021/11/27 04:01:53;;;;;;;15.48;6.68;;;;;;;;;;5012162;28;20094;-67
2021/11/27 04:04:19;;;;;;;11.20;5.22;;;;;;;;;;5011876;28;20315;-67
2021/11/27 04:06:45;;;;;;;13.30;6.40;;;;;;;;;;5010164;28;20036;-67
2021/11/27 04:09:12;;;;;;;10.25;6.05;;;;;;;;;;4994542;28;20083;-68
2021/11/27 04:11:39;;;;;;;14.07;6.75;;;;;;;;;;5009783;28;20339;-68
2021/11/27 04:14:05;;;;;;;11.10;6.15;;;;;;;;;;5010311;28;20359;-67
2021/11/27 04:16:31;;;;;;;13.40;6.75;;;;;;;;;;4993408;28;20372;-67
2021/11/27 04:18:57;;;;;;;10.73;6.07;;;;;;;;;;5011418;28;20374;-68
2021/11/27 04:21:22;;;;;;;10.43;6.10;;;;;;;;;;5012267;28;20075;-67
2021/11/27 04:23:49;;;;;;;12.23;6.13;;;;;;;;;;5011970;28;20400;-67
2021/11/27 04:26:15;;;;;;;10.20;5.57;;;;;;;;;;5012160;28;20443;-67
2021/11/27 04:28:41;;;;;;;11.68;6.43;;;;;;;;;;4976654;28;20377;-67
2021/11/27 04:31:06;;;;;;;11.60;6.28;;;;;;;;;;5011045;28;20316;-68
2021/11/27 04:33:31;;;;;;;14.30;7.68;;;;;;;;;;5011154;28;20079;-67
2021/11/27 04:35:57;;;;;;;12.00;6.57;;;;;;;;;;5010904;28;20367;-67
2021/11/27 04:38:23;;;;;;;15.70;7.70;;;;;;;;;;5010861;28;20462;-69
2021/11/27 04:40:49;;;;;;;15.23;6.97;;;;;;;;;;5011666;28;20569;-68
2021/11/27 04:43:16;;;;;;;14.48;6.97;;;;;;;;;;5011030;28;20046;-69
2021/11/27 04:45:41;;;;;;;18.50;8.02;;;;;;;;;;5010686;28;20428;-67
2021/11/27 04:48:07;;;;;;;15.20;7.75;;;;;;;;;;5010462;28;20358;-67
2021/11/27 04:50:33;;;;;;;17.73;7.57;;;;;;;;;;5010662;28;20350;-67
2021/11/27 04:52:59;;;;;;;15.57;7.40;;;;;;;;;;5011395;28;20111;-67
2021/11/27 04:55:24;;;;;;;16.27;7.18;;;;;;;;;;5011193;28;20443;-68
2021/11/27 04:57:50;;;;;;;16.67;7.63;;;;;;;;;;5010606;28;20462;-67
2021/11/27 05:00:20;;;;;;;16.17;7.85;;;;;;;;;;5011111;28;20454;-67
2021/11/27 05:02:46;;;;;;;17.70;7.28;;;;;;;;;;5010700;28;20491;-67
2021/11/27 05:05:11;;;;;;;16.15;7.55;;;;;;;;;;5011159;28;20450;-67
2021/11/27 05:07:36;;;;;;;17.55;7.75;;;;;;;;;;5010291;28;20398;-67
2021/11/27 05:10:03;;;;;;;15.40;7.82;;;;;;;;;;5010381;28;20510;-67
2021/11/27 05:12:28;;;;;;;18.85;8.20;;;;;;;;;;4992311;28;20098;-68
2021/11/27 05:14:53;;;;;;;14.55;7.47;;;;;;;;;;5010863;28;20439;-67
2021/11/27 05:17:19;;;;;;;17.17;7.78;;;;;;;;;;5010592;28;20572;-68
2021/11/27 05:19:46;;;;;;;17.70;7.72;;;;;;;;;;5011999;28;20490;-67
2021/11/27 05:22:12;;;;;;;12.52;7.28;;;;;;;;;;5011504;28;20504;-68
2021/11/27 05:24:43;;;;;;;15.30;7.95;;;;;;;;;;5011238;28;20439;-67
2021/11/27 05:27:09;;;;;;;15.60;7.55;;;;;;;;;;5010644;28;20420;-67
2021/11/27 05:29:35;;;;;;;17.17;8.13;;;;;;;;;;5010496;28;20512;-67
2021/11/27 05:32:04;;;;;;;14.77;6.30;;;;;;;;;;5010216;28;20370;-68
2021/11/27 05:36:58;;;;;;;17.95;7.65;;;;;;;;;;5010013;28;20024;-67
2021/11/27 05:39:23;;;;;;;17.88;7.97;;;;;;;;;;4992142;28;20025;-67
2021/11/27 05:41:48;;;;;;;16.20;7.63;;;;;;;;;;5009668;28;20432;-67
2021/11/27 05:44:14;;;;;;;14.27;7.53;;;;;;;;;;5009758;28;20439;-67
2021/11/27 05:46:39;;;;;;;17.05;8.82;;;;;;;;;;5010134;28;20482;-67
2021/11/27 05:49:05;;;;;;;16.20;8.30;;;;;;;;;;5009354;28;20585;-67
2021/11/27 05:51:30;;;;;;;12.73;6.68;;;;;;;;;;5009601;28;20427;-67
2021/11/27 05:53:55;;;;;;;15.60;7.68;;;;;;;;;;5009397;28;20454;-67
2021/11/27 05:56:21;;;;;;;13.98;6.53;;;;;;;;;;4992185;28;20382;-67
2021/11/27 05:58:46;;;;;;;16.95;7.80;;;;;;;;;;4991306;28;20363;-67
2021/11/27 06:01:11;;;;;;;16.40;7.10;;;;;;;;;;4991860;28;20052;-67
2021/11/27 06:03:37;;;;;;;17.23;7.60;;;;;;;;;;5008814;28;20028;-67
2021/11/27 06:06:03;;;;;;;15.20;7.78;;;;;;;;;;5009339;28;20419;-68
2021/11/27 06:08:30;;;;;;;12.38;6.60;;;;;;;;;;5008973;28;20359;-68
2021/11/27 06:10:55;;;;;;;15.18;7.25;;;;;;;;;;4991694;28;20450;-67
2021/11/27 06:13:21;;;;;;;15.63;7.85;;;;;;;;;;5009226;28;20401;-67
2021/11/27 06:15:46;;;;;;;13.90;7.03;;;;;;;;;;5008751;28;20312;-67
2021/11/27 06:18:11;;;;;;;16.13;7.45;;;;;;;;;;5009280;28;20315;-67
2021/11/27 06:20:37;;;;;;;16.30;7.55;;;;;;;;;;5008812;28;20115;-67
2021/11/27 06:23:02;;;;;;;12.70;6.07;;;;;;;;;;4991307;28;20493;-67
2021/11/27 06:25:28;;;;;;;16.38;7.50;;;;;;;;;;4991666;28;20455;-67
2021/11/27 06:27:54;;;;;;;15.73;7.72;;;;;;;;;;5008234;28;20363;-67
2021/11/27 06:30:20;;;;;;;15.43;7.88;;;;;;;;;;5008638;28;20501;-67
2021/11/27 06:32:45;;;;;;;13.73;7.10;;;;;;;;;;5008813;28;20390;-67
2021/11/27 06:35:11;;;;;;;15.13;6.90;;;;;;;;;;4990411;28;20453;-67
2021/11/27 06:37:37;;;;;;;16.42;6.90;;;;;;;;;;5010040;28;20402;-67
2021/11/27 06:40:03;;;;;;;15.88;7.38;;;;;;;;;;5010422;28;20400;-67
2021/11/27 06:42:28;;;;;;;16.15;7.45;;;;;;;;;;4991409;28;20024;-67
2021/11/27 06:44:54;;;;;;;14.40;6.75;;;;;;;;;;4991045;28;20431;-67
2021/11/27 06:47:21;;;;;;;16.35;7.18;;;;;;;;;;4978367;28;20399;-67
2021/11/27 06:49:47;;;;;;;16.00;6.88;;;;;;;;;;4971279;28;20436;-67
2021/11/27 06:52:14;;;;;;;13.75;7.75;;;;;;;;;;4988916;28;20455;-67
2021/11/27 06:54:40;;;;;;;14.50;7.05;;;;;;;;;;4990020;28;20473;-67
2021/11/27 06:57:06;;;;;;;14.45;7.45;;;;;;;;;;4971160;28;20029;-67
2021/11/27 06:59:33;;;;;;;14.48;8.10;;;;;;;;;;4971113;28;20044;-67
2021/11/27 07:01:58;;;;;;;14.68;7.00;;;;;;;;;;4988528;28;20456;-68
2021/11/27 07:04:24;;;;;;;16.95;8.02;;;;;;;;;;4988228;28;20474;-67
2021/11/27 07:06:50;;;;;;;14.13;6.55;;;;;;;;;;4988712;28;20424;-67
2021/11/27 07:09:16;;;;;;;11.48;6.43;;;;;;;;;;4988427;28;20428;-68
2021/11/27 07:11:42;;;;;;;12.75;6.60;;;;;;;;;;4988899;28;20494;-67
2021/11/27 07:14:08;;;;;;;16.65;6.15;;;;;;;;;;4988380;28;20525;-70
2021/11/27 07:16:33;;;;;;;12.10;6.45;;;;;;;;;;4989283;28;20367;-67
2021/11/27 07:18:59;;;;;;;11.50;6.13;;;;;;;;;;4988542;28;20471;-67
2021/11/27 07:21:24;;;;;;;14.23;7.07;;;;;;;;;;4990161;28;20496;-67
2021/11/27 07:23:51;;;;;;;13.93;7.22;;;;;;;;;;4988563;28;20412;-67
2021/11/27 07:26:17;;;;;;;13.70;6.78;;;;;;;;;;4988622;28;20029;-68
2021/11/27 07:28:42;;;;;;;14.25;6.05;;;;;;;;;;4989199;28;20436;-67
2021/11/27 07:31:08;;;;;;;12.25;6.53;;;;;;;;;;4988868;28;20432;-67
2021/11/27 07:33:33;;;;;;;14.73;7.47;;;;;;;;;;4990988;28;20447;-67
2021/11/27 07:35:59;;;;;;;12.82;5.80;;;;;;;;;;4992154;28;20460;-67
2021/11/27 07:38:24;;;;;;;15.65;6.57;;;;;;;;;;4992315;28;20463;-67
2021/11/27 07:40:50;;;;;;;14.68;6.50;;;;;;;;;;4991960;28;20025;-67
2021/11/27 07:43:16;;;;;;;12.90;6.10;;;;;;;;;;4974278;28;20439;-67
2021/11/27 07:45:41;;;;;;;9.98;5.80;;;;;;;;;;4974475;28;20424;-68
2021/11/27 07:48:07;;;;;;;10.98;6.45;;;;;;;;;;5010642;28;20546;-67
2021/11/27 07:50:33;;;;;;;12.73;6.38;;;;;;;;;;5011582;28;20439;-67
2021/11/27 07:52:59;;;;;;;11.63;5.85;;;;;;;;;;4993902;28;20509;-67
2021/11/27 07:55:25;;;;;;;16.90;6.50;;;;;;;;;;5010579;28;20435;-67
2021/11/27 07:57:51;;;;;;;11.80;6.68;;;;;;;;;;5011482;28;20355;-67
2021/11/27 08:00:16;;;;;;;11.73;5.78;;;;;;;;;;4977007;28;20316;-67
2021/11/27 08:02:41;;;;;;;13.63;6.40;;;;;;;;;;5012051;28;20374;-67
2021/11/27 08:05:07;;;;;;;11.20;6.80;;;;;;;;;;5011500;28;20048;-67
2021/11/27 08:07:35;;;;;;;10.95;5.78;;;;;;;;;;5012509;28;20564;-68
2021/11/27 08:10:04;;;;;;;10.70;5.95;;;;;;;;;;5012578;28;20340;-67
2021/11/27 08:12:29;;;;;;;;;;;;;;;;;;5012431;28;20091;-67
2021/11/27 08:14:55;;;;;;;11.43;5.63;;;;;;;;;;5011696;28;20016;-69
2021/11/27 08:17:20;;;;;;;13.02;6.47;;;;;;;;;;5011260;28;20435;-67
2021/11/27 08:19:45;;;;;;;10.95;5.80;;;;;;;;;;5012045;28;20350;-67
2021/11/27 08:22:11;;;;;;;11.02;6.43;;;;;;;;;;4993308;28;20320;-67
2021/11/27 08:24:36;;;;;;;13.90;6.15;;;;;;;;;;4994109;28;20460;-67
2021/11/27 08:27:01;;;;;;;11.82;6.00;;;;;;;;;;5011578;28;20032;-67
2021/11/27 08:29:27;;;;;;;11.40;5.70;;;;;;;;;;5010786;28;20385;-68
2021/11/27 08:31:52;;;;;;;11.77;6.32;;;;;;;;;;5010942;28;20411;-68
2021/11/27 08:34:18;;;;;;;14.30;6.47;;;;;;;;;;5011780;28;20083;-67
2021/11/27 08:36:44;;;;;;;14.90;5.93;;;;;;;;;;5012397;28;20434;-67
2021/11/27 08:39:09;;;;;;;13.30;6.40;;;;;;;;;;5010946;28;20424;-67
2021/11/27 08:41:35;;;;;;;16.48;7.60;;;;;;;;;;5011005;28;20020;-68
2021/11/27 08:44:00;;;;;;;11.90;6.25;;;;;;;;;;5010079;28;20420;-67
2021/11/27 08:46:25;;;;;;;15.15;6.80;;;;;;;;;;4990005;28;20049;-67
2021/11/27 08:48:51;;;;;;;15.27;7.40;;;;;;;;;;4993693;28;20489;-67
2021/11/27 08:51:16;;;;;;;12.02;6.20;;;;;;;;;;5011094;28;20500;-67
2021/11/27 08:53:42;;;;;;;13.35;6.60;;;;;;;;;;5010462;28;20032;-67
2021/11/27 08:56:08;;;;;;;12.15;6.20;;;;;;;;;;5010601;28;20340;-68
2021/11/27 08:58:35;;;;;;;12.88;6.60;;;;;;;;;;5010475;28;20424;-67
2021/11/27 09:01:01;;;;;;;9.55;5.85;;;;;;;;;;5010758;28;20475;-67
2021/11/27 09:03:26;;;;;;;11.30;5.82;;;;;;;;;;5010856;28;20416;-68
2021/11/27 09:05:53;;;;;;;12.45;6.70;;;;;;;;;;5009910;28;20028;-67
2021/11/27 09:08:19;;;;;;;16.15;8.15;;;;;;;;;;5011513;28;20517;-68
2021/11/27 09:10:46;;;;;;;15.73;7.00;;;;;;;;;;5010375;28;20055;-67
2021/11/27 09:13:12;;;;;;;12.82;7.18;;;;;;;;;;5011916;28;20411;-67
2021/11/27 09:15:37;;;;;;;13.80;6.68;;;;;;;;;;5010874;28;20331;-67
2021/11/27 09:18:03;;;;;;;11.00;6.30;;;;;;;;;;5009636;28;20029;-67
2021/11/27 09:20:32;;;;;;;14.05;7.15;;;;;;;;;;5009905;28;20479;-67
2021/11/27 09:22:57;;;;;;;;;;;;;;;;;;5010143;28;20490;-68
2021/11/27 09:25:25;;;;;;;12.25;6.43;;;;;;;;;;5010957;28;20376;-67
2021/11/27 09:27:51;;;;;;;18.05;7.20;;;;;;;;;;5009720;28;20142;-68
2021/11/27 09:30:17;;;;;;;24.17;7.93;;;;;;;;;;4991897;28;20451;-71
2021/11/27 09:32:43;;;;;;;18.40;7.25;;;;;;;;;;5009212;28;20423;-68
2021/11/27 09:35:08;;;;;;;27.50;9.50;;;;;;;;;;4991493;28;20107;-67
2021/11/27 09:37:34;;;;;;;25.63;10.68;;;;;;;;;;5009619;28;20380;-67
2021/11/27 09:39:59;;;;;;;27.38;11.82;;;;;;;;;;5009445;28;20429;-65
2021/11/27 09:42:26;;;;;;;32.38;12.35;;;;;;;;;;5008907;28;20471;-67
2021/11/27 09:44:53;;;;;;;23.35;10.30;;;;;;;;;;4991930;28;20033;-66
2021/11/27 09:47:19;;;;;;;22.83;10.38;;;;;;;;;;5024670;28;20471;-68
2021/11/27 09:49:50;;;;;;;24.00;11.52;;;;;;;;;;4991926;28;20436;-69
2021/11/27 09:52:15;;;;;;;22.08;10.80;;;;;;;;;;5009756;28;20331;-67
2021/11/27 09:54:41;;;;;;;19.52;9.55;;;;;;;;;;5009870;28;20394;-67
2021/11/27 09:57:10;;;;;;;25.98;10.98;;;;;;;;;;5007834;28;20408;-67
2021/11/27 09:59:39;;;;;;;33.45;9.55;;;;;;;;;;5009344;28;20342;-67
2021/11/27 10:02:06;;;;;;;35.17;9.40;;;;;;;;;;4992161;28;20320;-67
2021/11/27 10:04:33;;;;;;;23.48;9.43;;;;;;;;;;5009896;28;20047;-67
2021/11/27 10:06:59;;;;;;;26.17;10.18;;;;;;;;;;4991642;28;20101;-67
2021/11/27 10:09:25;;;;;;;26.45;10.13;;;;;;;;;;5008957;28;20442;-67
2021/11/27 10:11:52;;;;;;;19.15;9.73;;;;;;;;;;5008882;28;20458;-67
2021/11/27 10:14:19;;;;;;;19.70;8.75;;;;;;;;;;4991502;28;20526;-67
2021/11/27 10:16:56;;;;;;;18.40;8.40;;;;;;;;;;4990890;28;20093;-67
2021/11/27 10:19:23;;;;;;;33.22;9.73;;;;;;;;;;5009528;28;20498;-67
2021/11/27 10:21:55;;;;;;;18.50;9.35;;;;;;;;;;5008580;28;20351;-66
2021/11/27 10:24:23;;;;;;;14.38;8.32;;;;;;;;;;5009376;28;20086;-68
2021/11/27 10:26:50;;;;;;;18.20;8.13;;;;;;;;;;5010576;28;20447;-67
2021/11/27 10:29:20;;;;;;;24.52;10.35;;;;;;;;;;4990750;28;20434;-65
2021/11/27 10:31:50;;;;;;;15.73;7.93;;;;;;;;;;5008585;28;20033;-66
2021/11/27 10:34:18;;;;;;;17.02;8.02;;;;;;;;;;5010057;28;20340;-66
2021/11/27 10:36:44;;;;;;;16.15;8.05;;;;;;;;;;4990919;28;20482;-65
2021/11/27 10:39:10;;;;;;;17.25;7.05;;;;;;;;;;4990715;28;20378;-67
2021/11/27 10:41:37;;;;;;;17.67;7.35;;;;;;;;;;4991258;28;20402;-66
2021/11/27 10:44:05;;;;;;;23.50;9.45;;;;;;;;;;5008683;28;20103;-66
2021/11/27 10:46:33;;;;;;;15.53;7.50;;;;;;;;;;5005603;28;20492;-65
2021/11/27 10:49:00;;;;;;;17.23;9.13;;;;;;;;;;4991066;28;20453;-65
2021/11/27 10:51:25;;;;;;;16.77;7.70;;;;;;;;;;5009101;28;20429;-65
2021/11/27 10:53:59;;;;;;;21.90;9.88;;;;;;;;;;5009042;28;20386;-65
2021/11/27 10:56:41;;;;;;;20.92;9.25;;;;;;;;;;5008350;28;20348;-65
2021/11/27 10:59:07;;;;;;;24.77;9.57;;;;;;;;;;5008877;28;20024;-66
2021/11/27 11:02:01;;;;;;;26.08;11.02;;;;;;;;;;5008707;28;20415;-65
2021/11/27 11:04:27;;;;;;;26.85;9.00;;;;;;;;;;5008796;28;20308;-65
2021/11/27 11:07:30;;;;;;;23.35;10.32;;;;;;;;;;5008793;28;20370;-66
2021/11/27 11:10:13;;;;;;;18.20;9.20;;;;;;;;;;5012751;28;20323;-66
2021/11/27 11:12:50;;;;;;;31.55;11.05;;;;;;;;;;5012485;28;20427;-66
2021/11/27 11:15:22;;;;;;;32.85;10.23;;;;;;;;;;5012218;28;20060;-66
2021/11/27 11:17:50;;;;;;;24.27;9.15;;;;;;;;;;4995699;28;20346;-66
2021/11/27 11:20:22;;;;;;;32.43;10.37;;;;;;;;;;4994921;28;20485;-66
2021/11/27 11:23:13;;;;;;;20.08;9.55;;;;;;;;;;5011807;28;20420;-66
2021/11/27 11:26:00;;;;;;;29.75;10.57;;;;;;;;;;5012338;28;20032;-65
2021/11/27 11:28:28;;;;;;;22.35;9.13;;;;;;;;;;5012066;28;20389;-67
2021/11/27 11:31:00;;;;;;;28.70;10.85;;;;;;;;;;4994034;28;20454;-67
2021/11/27 11:33:28;;;;;;;21.27;9.30;;;;;;;;;;4994779;28;20466;-67
2021/11/27 11:35:53;;;;;;;23.15;10.45;;;;;;;;;;5012994;28;20432;-68
2021/11/27 11:38:20;;;;;;;37.70;15.63;;;;;;;;;;4994456;28;20355;-68
2021/11/27 11:40:46;;;;;;;39.78;14.70;;;;;;;;;;4994083;28;20475;-67
2021/11/27 11:43:12;;;;;;;36.45;13.50;;;;;;;;;;4994291;28;20360;-67
2021/11/27 11:45:37;;;;;;;38.83;15.38;;;;;;;;;;4994596;28;20323;-68
2021/11/27 11:48:05;;;;;;;50.15;17.38;;;;;;;;;;5010523;28;20332;-69
2021/11/27 11:50:33;;;;;;;69.85;24.45;;;;;;;;;;5011648;28;20455;-67
2021/11/27 11:53:05;;;;;;;47.22;20.52;;;;;;;;;;4993715;28;20399;-67
2021/11/27 11:55:31;;;;;;;58.67;21.63;;;;;;;;;;4992887;28;20017;-67
2021/11/27 11:57:58;;;;;;;89.35;30.70;;;;;;;;;;4993927;28;20400;-68
2021/11/27 12:00:38;;;;;;;86.30;28.48;;;;;;;;;;5010938;28;20569;-67
2021/11/27 12:03:09;;;;;;;83.13;31.60;;;;;;;;;;4993571;28;20044;-68
2021/11/27 12:05:53;;;;;;;70.47;28.00;;;;;;;;;;4994523;28;20419;-68
2021/11/27 12:08:21;;;;;;;78.70;30.42;;;;;;;;;;4993151;28;20339;-68
2021/11/27 12:10:46;;;;;;;95.63;33.63;;;;;;;;;;5011589;28;20067;-67
2021/11/27 12:13:17;;;;;;;88.38;33.67;;;;;;;;;;5011161;28;20460;-67
2021/11/27 12:15:44;;;;;;;79.78;29.98;;;;;;;;;;5027387;28;20340;-66
2021/11/27 12:18:17;;;;;;;70.30;28.75;;;;;;;;;;4993636;28;20512;-67
2021/11/27 12:21:03;;;;;;;72.30;27.60;;;;;;;;;;5009791;28;20420;-66
2021/11/27 12:23:34;;;;;;;62.22;26.83;;;;;;;;;;4992121;28;20054;-66
2021/11/27 12:26:08;;;;;;;59.88;24.90;;;;;;;;;;5009306;28;20443;-67
2021/11/27 12:28:49;;;;;;;56.15;21.73;;;;;;;;;;5011171;28;20447;-68
2021/11/27 12:31:22;;;;;;;47.45;19.88;;;;;;;;;;5003092;28;20355;-67
2021/11/27 12:34:00;;;;;;;57.50;22.05;;;;;;;;;;4992131;28;20427;-66
2021/11/27 12:36:30;;;;;;;44.30;18.08;;;;;;;;;;5009202;28;20532;-65
2021/11/27 12:38:56;;;;;;;43.08;18.88;;;;;;;;;;5010715;28;20343;-67
2021/11/27 12:41:35;;;;;;;46.35;19.30;;;;;;;;;;5010247;28;20423;-66
2021/11/27 12:44:15;;;;;;;32.92;15.07;;;;;;;;;;5008644;28;20048;-67
2021/11/27 12:47:20;;;;;;;34.40;15.25;;;;;;;;;;5008673;28;20343;-64
2021/11/27 12:49:46;;;;;;;36.05;15.55;;;;;;;;;;5010253;28;20028;-65
2021/11/27 12:52:18;;;;;;;39.72;15.55;;;;;;;;;;5009703;28;20420;-67
2021/11/27 12:54:50;;;;;;;40.00;14.50;;;;;;;;;;5011194;28;20344;-66
2021/11/27 12:57:19;;;;;;;37.45;14.45;;;;;;;;;;5010533;28;20338;-65
2021/11/27 12:59:46;;;;;;;27.63;12.32;;;;;;;;;;5009800;28;20047;-65
2021/11/27 13:02:13;;;;;;;39.28;14.23;;;;;;;;;;5010880;28;20447;-65
2021/11/27 13:04:39;;;;;;;39.08;13.50;;;;;;;;;;5011617;28;20344;-65
2021/11/27 13:07:04;;;;;;;32.58;13.63;;;;;;;;;;5010217;28;20355;-66
2021/11/27 13:09:30;;;;;;;32.85;13.45;;;;;;;;;;5010868;28;20336;-65
2021/11/27 13:11:57;;;;;;;28.00;13.32;;;;;;;;;;5010027;28;20450;-67
2021/11/27 13:14:25;;;;;;;27.60;11.52;;;;;;;;;;5011250;28;20492;-65
2021/11/27 13:16:53;;;;;;;34.40;13.68;;;;;;;;;;4990828;28;20351;-66
2021/11/27 13:19:26;;;;;;;32.78;15.15;;;;;;;;;;5009474;28;20024;-65
2021/11/27 13:21:52;;;;;;;32.92;13.77;;;;;;;;;;4992409;28;20090;-66
2021/11/27 13:24:17;;;;;;;30.90;12.32;;;;;;;;;;5010460;28;20028;-66
2021/11/27 13:26:43;;;;;;;29.70;11.75;;;;;;;;;;5010113;28;20493;-66
2021/11/27 13:29:08;;;;;;;31.35;12.05;;;;;;;;;;4990191;28;20371;-67
2021/11/27 13:31:36;;;;;;;34.95;12.93;;;;;;;;;;5009599;28;20411;-67
2021/11/27 13:34:07;;;;;;;30.88;11.65;;;;;;;;;;5009464;28;20328;-67
2021/11/27 13:36:38;;;;;;;28.70;11.25;;;;;;;;;;5010109;28;20338;-67
2021/11/27 13:39:28;;;;;;;29.75;11.80;;;;;;;;;;5009749;28;20131;-67
2021/11/27 13:42:08;;;;;;;24.02;11.07;;;;;;;;;;5006788;28;20504;-67
2021/11/27 13:44:54;;;;;;;29.20;11.52;;;;;;;;;;5008387;28;20327;-66
2021/11/27 13:47:22;;;;;;;20.90;9.73;;;;;;;;;;4991704;28;20475;-66
2021/11/27 13:49:49;;;;;;;26.20;11.87;;;;;;;;;;5008713;28;20348;-67
2021/11/27 13:52:19;;;;;;;23.00;10.00;;;;;;;;;;5009691;28;20393;-67
2021/11/27 13:54:50;;;;;;;20.95;9.88;;;;;;;;;;4991324;28;20346;-67
2021/11/27 13:57:16;;;;;;;15.32;8.75;;;;;;;;;;5009333;28;20432;-67
2021/11/27 13:59:43;;;;;;;21.63;9.45;;;;;;;;;;4990372;28;20052;-68
2021/11/27 14:02:10;;;;;;;23.85;9.90;;;;;;;;;;4989766;28;20350;-66
2021/11/27 14:04:38;;;;;;;20.50;8.65;;;;;;;;;;4991573;28;20046;-67
2021/11/27 14:07:09;;;;;;;22.00;10.07;;;;;;;;;;4990972;28;20445;-67
2021/11/27 14:10:01;;;;;;;24.45;9.00;;;;;;;;;;5006047;28;20543;-68
2021/11/27 14:12:29;;;;;;;23.23;8.68;;;;;;;;;;5004892;28;20048;-67
2021/11/27 14:14:57;;;;;;;20.63;9.27;;;;;;;;;;5006119;28;20024;-67
2021/11/27 14:17:23;;;;;;;18.92;8.85;;;;;;;;;;4990420;28;20557;-67
2021/11/27 14:19:48;;;;;;;20.05;8.75;;;;;;;;;;4990344;28;20444;-68
2021/11/27 14:22:15;;;;;;;22.88;8.73;;;;;;;;;;4990667;28;20355;-67
2021/11/27 14:24:43;;;;;;;25.30;9.50;;;;;;;;;;5012250;28;20021;-73
2021/11/27 14:27:10;;;;;;;23.85;9.32;;;;;;;;;;5008467;28;20386;-66
2021/11/27 14:29:36;;;;;;;19.80;8.77;;;;;;;;;;5008482;28;20485;-67
2021/11/27 14:32:02;;;;;;;18.73;8.43;;;;;;;;;;5007935;28;20459;-68
2021/11/27 14:34:35;;;;;;;20.42;8.52;;;;;;;;;;4990496;28;20409;-69
2021/11/27 14:37:02;;;;;;;21.50;8.65;;;;;;;;;;5008867;28;20331;-67